Time;durP1;ratioP1;P1;durP2;ratioP2;P2;SDS_P1;SDS_P2;PMS_P1;PMS_P2;Temp;Humidity;BMP_temperature;BMP_pressure;BME280_temperature;BME280_humidity;BME280_pressure;Samples;Min_cycle;Max_cycle;Signal;HPM_P1;HPM_P2
2024/02/14 00:01:10;;;;;;;87.35;9.20;;;;;;;;;;4992775;28;20047;-79
2024/02/14 00:03:38;;;;;;;91.55;9.10;;;;;;;;;;4993318;28;20121;-79
2024/02/14 00:06:06;;;;;;;74.25;7.70;;;;;;;;;;4992806;28;20093;-79
2024/02/14 00:08:33;;;;;;;81.13;8.27;;;;;;;;;;4993046;28;20046;-80
2024/02/14 00:11:00;;;;;;;64.22;7.97;;;;;;;;;;4993073;28;20042;-80
2024/02/14 00:13:27;;;;;;;58.83;7.43;;;;;;;;;;4992706;28;20381;-80
2024/02/14 00:15:54;;;;;;;73.05;8.82;;;;;;;;;;4993340;28;20062;-80
2024/02/14 00:18:22;;;;;;;73.93;8.95;;;;;;;;;;4992628;28;20046;-80
2024/02/14 00:20:49;;;;;;;84.80;10.23;;;;;;;;;;4993087;28;20042;-79
2024/02/14 00:23:16;;;;;;;75.93;7.72;;;;;;;;;;4992709;28;20066;-80
2024/02/14 00:25:43;;;;;;;69.70;7.35;;;;;;;;;;4992799;28;20042;-80
2024/02/14 00:28:10;;;;;;;63.40;7.07;;;;;;;;;;4992798;28;20049;-80
2024/02/14 00:30:36;;;;;;;79.15;8.18;;;;;;;;;;4993242;28;20489;-80
2024/02/14 00:33:03;;;;;;;78.07;7.57;;;;;;;;;;4993049;28;20116;-80
2024/02/14 00:35:30;;;;;;;84.95;7.75;;;;;;;;;;4973276;28;20051;-80
2024/02/14 00:37:57;;;;;;;68.85;6.93;;;;;;;;;;4973690;28;20043;-80
2024/02/14 00:40:24;;;;;;;76.32;8.32;;;;;;;;;;4985339;28;20042;-81
2024/02/14 00:42:51;;;;;;;62.55;6.30;;;;;;;;;;4991991;28;20077;-79
2024/02/14 00:45:17;;;;;;;64.05;7.00;;;;;;;;;;4975327;28;20078;-80
2024/02/14 00:47:44;;;;;;;49.95;6.97;;;;;;;;;;4992993;28;20097;-80
2024/02/14 00:50:13;;;;;;;51.67;6.82;;;;;;;;;;4995174;28;20042;-79
2024/02/14 00:52:41;;;;;;;69.93;6.75;;;;;;;;;;4996728;28;20049;-79
2024/02/14 00:55:08;;;;;;;65.57;6.30;;;;;;;;;;4995950;28;20073;-79
2024/02/14 00:57:35;;;;;;;63.80;6.78;;;;;;;;;;4996343;28;20046;-80
2024/02/14 01:00:03;;;;;;;63.58;7.45;;;;;;;;;;4996416;28;20058;-80
2024/02/14 01:02:30;;;;;;;54.30;6.30;;;;;;;;;;4995872;28;20034;-80
2024/02/14 01:04:57;;;;;;;56.95;7.13;;;;;;;;;;4996384;28;20046;-80
2024/02/14 01:07:24;;;;;;;62.90;7.22;;;;;;;;;;4978555;28;20055;-80
2024/02/14 01:09:51;;;;;;;54.03;6.38;;;;;;;;;;4996213;28;20046;-80
2024/02/14 01:12:18;;;;;;;66.88;6.63;;;;;;;;;;4995583;28;20050;-80
2024/02/14 01:14:44;;;;;;;64.15;6.72;;;;;;;;;;4996185;28;20477;-80
2024/02/14 01:17:11;;;;;;;74.25;7.93;;;;;;;;;;4978378;28;20042;-80
2024/02/14 01:19:38;;;;;;;70.15;7.30;;;;;;;;;;4995968;28;20058;-80
2024/02/14 01:22:04;;;;;;;71.50;8.15;;;;;;;;;;4995690;28;20070;-80
2024/02/14 01:24:32;;;;;;;62.80;6.45;;;;;;;;;;4995900;28;20058;-80
2024/02/14 01:26:58;;;;;;;75.13;9.05;;;;;;;;;;4995943;28;20054;-80
2024/02/14 01:29:25;;;;;;;76.65;7.03;;;;;;;;;;4995667;28;20129;-80
2024/02/14 01:31:52;;;;;;;74.18;8.25;;;;;;;;;;4995835;28;20050;-80
2024/02/14 01:34:19;;;;;;;83.05;8.70;;;;;;;;;;4995303;28;20057;-80
2024/02/14 01:36:48;;;;;;;68.30;6.82;;;;;;;;;;4995757;28;20049;-80
2024/02/14 01:39:15;;;;;;;;;;;;;;;;;;4995503;28;20433;-80
2024/02/14 01:41:48;;;;;;;72.82;7.82;;;;;;;;;;4995617;28;20269;-80
2024/02/14 01:44:16;;;;;;;74.28;7.57;;;;;;;;;;4995178;28;20046;-80
2024/02/14 01:46:44;;;;;;;74.18;7.95;;;;;;;;;;4995695;28;20089;-80
2024/02/14 01:49:14;;;;;;;80.90;7.97;;;;;;;;;;4977574;28;20481;-79
2024/02/14 01:51:44;;;;;;;73.47;7.10;;;;;;;;;;4978390;28;20121;-80
2024/02/14 01:54:12;;;;;;;97.55;9.98;;;;;;;;;;4994928;28;20061;-80
2024/02/14 01:56:40;;;;;;;82.70;8.07;;;;;;;;;;4978115;28;20053;-80
2024/02/14 01:59:07;;;;;;;85.72;8.45;;;;;;;;;;4994949;28;20051;-79
2024/02/14 02:01:35;;;;;;;70.68;7.88;;;;;;;;;;4993613;28;20092;-80
2024/02/14 02:04:04;;;;;;;81.30;8.25;;;;;;;;;;4995425;28;20057;-79
2024/02/14 02:06:31;;;;;;;74.28;8.55;;;;;;;;;;4994772;28;20122;-80
2024/02/14 02:08:59;;;;;;;73.28;7.60;;;;;;;;;;4977827;28;20046;-80
2024/02/14 02:11:26;;;;;;;70.25;7.35;;;;;;;;;;4994754;28;20461;-80
2024/02/14 02:13:53;;;;;;;61.92;6.72;;;;;;;;;;4995279;28;20120;-80
2024/02/14 02:16:20;;;;;;;66.10;6.15;;;;;;;;;;4994429;28;20042;-80
2024/02/14 02:18:48;;;;;;;65.43;7.63;;;;;;;;;;4977639;28;20492;-80
2024/02/14 02:21:15;;;;;;;70.15;7.18;;;;;;;;;;4994450;28;20048;-80
2024/02/14 02:23:43;;;;;;;72.13;8.25;;;;;;;;;;4994739;28;20042;-80
2024/02/14 02:26:11;;;;;;;68.53;7.40;;;;;;;;;;4994253;28;20046;-80
2024/02/14 02:28:39;;;;;;;63.97;7.70;;;;;;;;;;4995094;28;20042;-80
2024/02/14 02:31:07;;;;;;;65.63;7.75;;;;;;;;;;4994222;28;20389;-80
2024/02/14 02:33:33;;;;;;;61.10;8.00;;;;;;;;;;4994729;28;20050;-80
2024/02/14 02:36:00;;;;;;;64.18;7.25;;;;;;;;;;4994645;28;20042;-80
2024/02/14 02:38:27;;;;;;;65.60;7.80;;;;;;;;;;4994117;28;20050;-79
2024/02/14 02:40:54;;;;;;;61.80;7.13;;;;;;;;;;4994250;28;20452;-80
2024/02/14 02:43:21;;;;;;;89.57;8.90;;;;;;;;;;4993030;28;20049;-80
2024/02/14 02:45:48;;;;;;;59.05;6.43;;;;;;;;;;4977439;28;20043;-80
2024/02/14 02:48:14;;;;;;;62.00;6.82;;;;;;;;;;4993929;28;20053;-80
2024/02/14 02:50:44;;;;;;;61.50;6.75;;;;;;;;;;4994405;28;20048;-80
2024/02/14 02:53:11;;;;;;;72.55;7.47;;;;;;;;;;4994011;28;20093;-80
2024/02/14 02:55:38;;;;;;;68.93;8.00;;;;;;;;;;4994314;28;20065;-81
2024/02/14 02:58:06;;;;;;;70.38;7.35;;;;;;;;;;4993746;28;20046;-79
2024/02/14 03:00:33;;;;;;;59.85;7.20;;;;;;;;;;4994198;28;20046;-79
2024/02/14 03:03:02;;;;;;;78.63;7.05;;;;;;;;;;4994126;28;20050;-79
2024/02/14 03:05:31;;;;;;;70.05;8.55;;;;;;;;;;4993639;28;20042;-79
2024/02/14 03:07:58;;;;;;;80.38;7.95;;;;;;;;;;4994153;28;20045;-80
2024/02/14 03:10:26;;;;;;;66.88;7.53;;;;;;;;;;4993229;28;20124;-79
2024/02/14 03:12:53;;;;;;;63.90;8.20;;;;;;;;;;4993253;28;20042;-80
2024/02/14 03:15:19;;;;;;;77.47;8.23;;;;;;;;;;4993472;28;20046;-78
2024/02/14 03:17:46;;;;;;;72.82;8.13;;;;;;;;;;4993702;28;20081;-80
2024/02/14 03:20:14;;;;;;;88.10;9.07;;;;;;;;;;4993379;28;20038;-80
2024/02/14 03:22:44;;;;;;;97.22;9.15;;;;;;;;;;4993819;28;20050;-80
2024/02/14 03:25:18;;;;;;;100.90;9.77;;;;;;;;;;4993289;28;20046;-80
2024/02/14 03:27:48;;;;;;;96.70;8.77;;;;;;;;;;4993797;28;20042;-80
2024/02/14 03:30:16;;;;;;;92.90;9.38;;;;;;;;;;4993276;28;20151;-80
2024/02/14 03:32:45;;;;;;;76.45;9.95;;;;;;;;;;4993826;28;20070;-80
2024/02/14 03:35:15;;;;;;;80.63;7.82;;;;;;;;;;4993179;28;20129;-80
2024/02/14 03:37:47;;;;;;;86.63;9.48;;;;;;;;;;4993670;28;20057;-80
2024/02/14 03:40:14;;;;;;;80.18;9.48;;;;;;;;;;4992989;28;20054;-80
2024/02/14 03:42:41;;;;;;;77.45;8.63;;;;;;;;;;4993670;28;20054;-80
2024/02/14 03:45:09;;;;;;;74.13;8.63;;;;;;;;;;4992994;28;20045;-79
2024/02/14 03:47:39;;;;;;;76.28;9.13;;;;;;;;;;4976271;28;20043;-80
2024/02/14 03:50:08;;;;;;;70.65;8.15;;;;;;;;;;4992815;28;20050;-79
2024/02/14 03:52:35;;;;;;;71.53;7.93;;;;;;;;;;4992517;28;20057;-79
2024/02/14 03:55:02;;;;;;;75.82;8.38;;;;;;;;;;4993302;28;20042;-79
2024/02/14 03:57:29;;;;;;;65.68;8.75;;;;;;;;;;4992837;28;20042;-80
2024/02/14 03:59:59;;;;;;;73.07;8.25;;;;;;;;;;4993465;28;20393;-80
2024/02/14 04:02:28;;;;;;;76.30;8.60;;;;;;;;;;4992622;28;20377;-79
2024/02/14 04:04:55;;;;;;;74.80;7.93;;;;;;;;;;4993441;28;20053;-79
2024/02/14 04:07:22;;;;;;;69.45;7.60;;;;;;;;;;4992811;28;20046;-78
2024/02/14 04:09:49;;;;;;;79.68;9.05;;;;;;;;;;4993128;28;20076;-80
2024/02/14 04:12:15;;;;;;;72.95;8.18;;;;;;;;;;4992795;28;20046;-80
2024/02/14 04:14:42;;;;;;;88.45;8.93;;;;;;;;;;4993191;28;20055;-80
2024/02/14 04:17:11;;;;;;;74.07;8.38;;;;;;;;;;4992568;28;20134;-80
2024/02/14 04:19:38;;;;;;;78.15;7.82;;;;;;;;;;4993067;28;20058;-80
2024/02/14 04:22:05;;;;;;;72.88;8.07;;;;;;;;;;4992670;28;20043;-80
2024/02/14 04:24:36;;;;;;;69.57;8.02;;;;;;;;;;4995427;28;20057;-79
2024/02/14 04:27:03;;;;;;;84.53;9.02;;;;;;;;;;4997153;28;20073;-80
2024/02/14 04:29:33;;;;;;;77.03;8.57;;;;;;;;;;4996790;28;20049;-79
2024/02/14 04:32:01;;;;;;;68.43;7.65;;;;;;;;;;4997090;28;20138;-79
2024/02/14 04:34:28;;;;;;;70.13;7.32;;;;;;;;;;4996446;28;20056;-80
2024/02/14 04:36:55;;;;;;;76.13;9.15;;;;;;;;;;4996543;28;20478;-80
2024/02/14 04:39:22;;;;;;;68.95;8.18;;;;;;;;;;4996369;28;20049;-80
2024/02/14 04:41:50;;;;;;;79.18;9.38;;;;;;;;;;4996843;28;20046;-80
2024/02/14 04:44:27;;;;;;;72.13;8.65;;;;;;;;;;4996388;28;20057;-80
2024/02/14 04:46:56;;;;;;;67.72;7.15;;;;;;;;;;4996707;28;20474;-80
2024/02/14 04:49:23;;;;;;;70.25;7.70;;;;;;;;;;4996213;28;20046;-80
2024/02/14 04:51:51;;;;;;;57.95;7.15;;;;;;;;;;4996758;28;20464;-79
2024/02/14 04:54:18;;;;;;;74.23;8.17;;;;;;;;;;4996589;28;20042;-80
2024/02/14 04:56:47;;;;;;;65.47;7.45;;;;;;;;;;4996725;28;20381;-80
2024/02/14 04:59:19;;;;;;;71.28;8.40;;;;;;;;;;4996266;28;20046;-79
2024/02/14 05:01:46;;;;;;;58.45;6.15;;;;;;;;;;4996761;28;20046;-80
2024/02/14 05:04:12;;;;;;;57.28;7.47;;;;;;;;;;4995997;28;20097;-80
2024/02/14 05:06:39;;;;;;;65.90;7.35;;;;;;;;;;4996975;28;20049;-80
2024/02/14 05:09:06;;;;;;;58.00;7.25;;;;;;;;;;4997906;28;20054;-79
2024/02/14 05:11:33;;;;;;;59.20;7.03;;;;;;;;;;5000650;28;20054;-80
2024/02/14 05:14:02;;;;;;;69.13;10.02;;;;;;;;;;5000202;28;20074;-79
2024/02/14 05:16:28;;;;;;;90.50;17.38;;;;;;;;;;5000152;28;20386;-80
2024/02/14 05:18:55;;;;;;;74.05;10.43;;;;;;;;;;5000237;28;20046;-79
2024/02/14 05:21:22;;;;;;;51.95;12.63;;;;;;;;;;4999414;28;20138;-79
2024/02/14 05:23:49;;;;;;;60.80;7.90;;;;;;;;;;4996745;28;20042;-79
2024/02/14 05:26:16;;;;;;;60.78;9.40;;;;;;;;;;4995318;28;20093;-79
2024/02/14 05:28:43;;;;;;;62.63;9.63;;;;;;;;;;4995869;28;20058;-80
2024/02/14 05:31:10;;;;;;;57.60;8.82;;;;;;;;;;4995407;28;20485;-79
2024/02/14 05:33:37;;;;;;;63.88;8.07;;;;;;;;;;4995737;28;20049;-79
2024/02/14 05:36:05;;;;;;;64.40;8.10;;;;;;;;;;4994830;28;20034;-80
2024/02/14 05:38:34;;;;;;;73.97;9.35;;;;;;;;;;4995551;28;20070;-79
2024/02/14 05:41:01;;;;;;;49.58;6.68;;;;;;;;;;4995554;28;20042;-79
2024/02/14 05:43:27;;;;;;;68.97;8.23;;;;;;;;;;4995111;28;20050;-80
2024/02/14 05:45:55;;;;;;;64.63;8.60;;;;;;;;;;4994452;28;20046;-79
2024/02/14 05:48:22;;;;;;;83.30;7.82;;;;;;;;;;4994973;28;20054;-79
2024/02/14 05:50:49;;;;;;;57.88;7.53;;;;;;;;;;4995526;28;20050;-80
2024/02/14 05:53:16;;;;;;;61.55;8.27;;;;;;;;;;4995072;28;20141;-81
2024/02/14 05:55:43;;;;;;;79.53;8.07;;;;;;;;;;4995279;28;20097;-79
2024/02/14 05:58:09;;;;;;;69.75;8.88;;;;;;;;;;4994668;28;20201;-79
2024/02/14 06:00:36;;;;;;;71.13;10.32;;;;;;;;;;4995372;28;20050;-81
2024/02/14 06:03:06;;;;;;;76.22;8.88;;;;;;;;;;4993680;28;20132;-80
2024/02/14 06:05:34;;;;;;;56.25;7.47;;;;;;;;;;4994672;28;20504;-80
2024/02/14 06:08:02;;;;;;;57.85;7.78;;;;;;;;;;4995261;28;20056;-79
2024/02/14 06:10:30;;;;;;;67.13;9.57;;;;;;;;;;4994655;28;20851;-79
2024/02/14 06:12:56;;;;;;;68.30;8.85;;;;;;;;;;4995059;28;20048;-80
2024/02/14 06:15:23;;;;;;;60.83;8.93;;;;;;;;;;4994379;28;20096;-80
2024/02/14 06:17:50;;;;;;;77.22;10.40;;;;;;;;;;4994964;28;20046;-79
2024/02/14 06:20:17;;;;;;;68.38;9.45;;;;;;;;;;4994373;28;20050;-80
2024/02/14 06:22:44;;;;;;;76.70;10.15;;;;;;;;;;4995024;28;20046;-80
2024/02/14 06:25:23;;;;;;;69.05;9.13;;;;;;;;;;4994417;28;20141;-79
2024/02/14 06:27:49;;;;;;;80.97;9.38;;;;;;;;;;4994779;28;20049;-80
2024/02/14 06:30:17;;;;;;;67.65;9.45;;;;;;;;;;4994257;28;20046;-79
2024/02/14 06:32:44;;;;;;;75.97;10.32;;;;;;;;;;4995099;28;20363;-79
2024/02/14 06:35:14;;;;;;;57.70;8.95;;;;;;;;;;4992976;28;20046;-78
2024/02/14 06:37:42;;;;;;;60.78;8.23;;;;;;;;;;4994927;28;20054;-79
2024/02/14 06:40:22;;;;;;;69.45;9.90;;;;;;;;;;4993808;28;20398;-80
2024/02/14 06:42:51;;;;;;;58.65;9.02;;;;;;;;;;4994393;28;20139;-78
2024/02/14 06:45:18;;;;;;;74.30;8.77;;;;;;;;;;4993903;28;20050;-79
2024/02/14 06:47:45;;;;;;;55.58;7.25;;;;;;;;;;4994140;28;20046;-80
2024/02/14 06:50:12;;;;;;;76.93;9.15;;;;;;;;;;4993625;28;20093;-79
2024/02/14 06:52:38;;;;;;;72.88;8.95;;;;;;;;;;4994312;28;20050;-80
2024/02/14 06:55:05;;;;;;;72.43;8.60;;;;;;;;;;4993596;28;20046;-80
2024/02/14 06:57:32;;;;;;;52.35;8.98;;;;;;;;;;4994099;28;20049;-79
2024/02/14 06:59:59;;;;;;;55.05;7.75;;;;;;;;;;4992334;28;20075;-80
2024/02/14 07:02:27;;;;;;;63.22;8.82;;;;;;;;;;4992868;28;20121;-80
2024/02/14 07:04:55;;;;;;;74.55;7.68;;;;;;;;;;4993619;28;20052;-80
2024/02/14 07:07:21;;;;;;;59.28;7.13;;;;;;;;;;4992560;28;20045;-80
2024/02/14 07:09:48;;;;;;;55.35;7.85;;;;;;;;;;4993332;28;20047;-80
2024/02/14 07:12:15;;;;;;;48.95;6.47;;;;;;;;;;4993206;28;20075;-80
2024/02/14 07:14:42;;;;;;;39.28;6.20;;;;;;;;;;4993344;28;20540;-80
2024/02/14 07:17:08;;;;;;;46.80;6.97;;;;;;;;;;4993051;28;20101;-80
2024/02/14 07:19:35;;;;;;;51.42;7.20;;;;;;;;;;4993407;28;20034;-80
2024/02/14 07:22:02;;;;;;;53.72;6.80;;;;;;;;;;4994254;28;20473;-80
2024/02/14 07:24:29;;;;;;;61.35;7.18;;;;;;;;;;4976796;28;20054;-82
2024/02/14 07:26:56;;;;;;;52.47;6.70;;;;;;;;;;4993928;28;20046;-80
2024/02/14 07:29:23;;;;;;;52.92;7.55;;;;;;;;;;4990320;28;20056;-80
2024/02/14 07:31:50;;;;;;;44.70;6.40;;;;;;;;;;4990475;28;20125;-80
2024/02/14 07:34:17;;;;;;;51.97;9.57;;;;;;;;;;4989855;28;20105;-81
2024/02/14 07:36:46;;;;;;;169.77;77.22;;;;;;;;;;4991113;28;20129;-80
2024/02/14 07:39:13;;;;;;;58.63;7.18;;;;;;;;;;4990636;28;20132;-80
2024/02/14 07:41:40;;;;;;;62.13;8.27;;;;;;;;;;4991791;28;20043;-80
2024/02/14 07:44:06;;;;;;;50.92;8.15;;;;;;;;;;4992811;28;20042;-79
2024/02/14 07:46:34;;;;;;;62.38;16.23;;;;;;;;;;4994180;28;20137;-81
2024/02/14 07:49:01;;;;;;;58.92;8.13;;;;;;;;;;4994646;28;20508;-80
2024/02/14 07:51:29;;;;;;;52.00;9.48;;;;;;;;;;4994801;28;20046;-80
2024/02/14 07:53:55;;;;;;;56.97;7.13;;;;;;;;;;4995851;28;20500;-81
2024/02/14 07:56:22;;;;;;;66.63;10.45;;;;;;;;;;4995264;28;20104;-80
2024/02/14 07:58:49;;;;;;;60.00;9.80;;;;;;;;;;4996001;28;20118;-79
2024/02/14 08:01:16;;;;;;;53.63;7.03;;;;;;;;;;4978001;28;20089;-79
2024/02/14 08:03:45;;;;;;;56.78;12.98;;;;;;;;;;4996237;28;20049;-79
2024/02/14 08:06:13;;;;;;;64.88;9.18;;;;;;;;;;4978728;28;20062;-80
2024/02/14 08:08:40;;;;;;;71.75;9.50;;;;;;;;;;4996052;28;20303;-80
2024/02/14 08:11:07;;;;;;;76.03;10.68;;;;;;;;;;4995470;28;20050;-81
2024/02/14 08:13:34;;;;;;;60.45;9.38;;;;;;;;;;4995706;28;20043;-79
2024/02/14 08:16:01;;;;;;;67.03;9.82;;;;;;;;;;4989794;28;20054;-79
2024/02/14 08:18:28;;;;;;;56.63;8.52;;;;;;;;;;4994768;28;20540;-80
2024/02/14 08:20:55;;;;;;;60.15;9.40;;;;;;;;;;4995225;28;20047;-79
2024/02/14 08:23:22;;;;;;;52.20;6.82;;;;;;;;;;4995103;28;20042;-79
2024/02/14 08:25:49;;;;;;;60.50;7.95;;;;;;;;;;4994940;28;20038;-79
2024/02/14 08:28:17;;;;;;;55.45;6.57;;;;;;;;;;4994131;28;20053;-79
2024/02/14 08:30:44;;;;;;;56.92;7.25;;;;;;;;;;4994590;28;20435;-79
2024/02/14 08:33:11;;;;;;;62.10;8.15;;;;;;;;;;4994499;28;20474;-80
2024/02/14 08:35:39;;;;;;;61.05;7.93;;;;;;;;;;4992805;28;20112;-79
2024/02/14 08:38:09;;;;;;;68.05;9.27;;;;;;;;;;4992018;28;20121;-79
2024/02/14 08:40:36;;;;;;;52.55;6.85;;;;;;;;;;4992856;28;20050;-80
2024/02/14 08:43:04;;;;;;;50.67;7.43;;;;;;;;;;4992989;28;20050;-79
2024/02/14 08:45:31;;;;;;;47.00;6.53;;;;;;;;;;4992698;28;20434;-80
2024/02/14 08:47:58;;;;;;;55.95;8.50;;;;;;;;;;4992334;28;20042;-79
2024/02/14 08:50:25;;;;;;;50.03;6.65;;;;;;;;;;4992157;28;20114;-79
2024/02/14 08:52:52;;;;;;;52.88;5.90;;;;;;;;;;4992306;28;20050;-80
2024/02/14 08:55:19;;;;;;;51.25;7.20;;;;;;;;;;4992674;28;20053;-79
2024/02/14 08:57:47;;;;;;;59.20;7.53;;;;;;;;;;4974919;28;20050;-80
2024/02/14 09:00:19;;;;;;;51.53;7.50;;;;;;;;;;4991975;28;20042;-79
2024/02/14 09:02:46;;;;;;;47.78;5.72;;;;;;;;;;4991178;28;20046;-80
2024/02/14 09:05:14;;;;;;;47.38;5.97;;;;;;;;;;4991958;28;20047;-79
2024/02/14 09:07:41;;;;;;;44.58;5.30;;;;;;;;;;4992234;28;20278;-79
2024/02/14 09:10:10;;;;;;;43.60;6.03;;;;;;;;;;4991827;28;20047;-80
2024/02/14 09:12:37;;;;;;;44.65;6.32;;;;;;;;;;4995638;28;20285;-80
2024/02/14 09:15:05;;;;;;;36.92;6.43;;;;;;;;;;4995813;28;20130;-80
2024/02/14 09:17:32;;;;;;;49.43;5.67;;;;;;;;;;4994960;28;20077;-79
2024/02/14 09:19:59;;;;;;;44.45;6.57;;;;;;;;;;4997377;28;20493;-80
2024/02/14 09:22:26;;;;;;;44.53;6.30;;;;;;;;;;4995940;28;20042;-79
2024/02/14 09:24:53;;;;;;;50.63;5.80;;;;;;;;;;4997523;28;20057;-79
2024/02/14 09:27:20;;;;;;;44.67;6.25;;;;;;;;;;4996949;28;20133;-80
2024/02/14 09:29:47;;;;;;;32.05;5.28;;;;;;;;;;4997473;28;20105;-80
2024/02/14 09:32:13;;;;;;;38.08;5.32;;;;;;;;;;4996909;28;20112;-79
2024/02/14 09:34:40;;;;;;;44.47;6.38;;;;;;;;;;4995764;28;20056;-80
2024/02/14 09:37:09;;;;;;;38.47;5.35;;;;;;;;;;4995959;28;20046;-80
2024/02/14 09:39:36;;;;;;;32.30;5.57;;;;;;;;;;4996624;28;20047;-80
2024/02/14 09:42:10;;;;;;;39.75;5.75;;;;;;;;;;4997237;28;20034;-80
2024/02/14 09:44:38;;;;;;;41.40;6.18;;;;;;;;;;4998510;28;20473;-81
2024/02/14 09:47:07;;;;;;;38.97;5.30;;;;;;;;;;4997104;28;20046;-79
2024/02/14 09:49:35;;;;;;;32.03;5.45;;;;;;;;;;4998350;28;20046;-79
2024/02/14 09:52:03;;;;;;;34.80;4.72;;;;;;;;;;4998556;28;20073;-80
2024/02/14 09:54:31;;;;;;;43.33;5.53;;;;;;;;;;4997592;28;20034;-79
2024/02/14 09:56:59;;;;;;;32.85;4.03;;;;;;;;;;4979744;28;20133;-79
2024/02/14 09:59:26;;;;;;;39.38;4.28;;;;;;;;;;4997264;28;20049;-80
2024/02/14 10:01:52;;;;;;;28.48;4.97;;;;;;;;;;4998013;28;20137;-80
2024/02/14 10:04:20;;;;;;;27.20;4.95;;;;;;;;;;4994917;28;20138;-79
2024/02/14 10:06:51;;;;;;;22.73;4.00;;;;;;;;;;4989953;28;20129;-80
2024/02/14 10:09:22;;;;;;;33.80;4.88;;;;;;;;;;4993514;28;20129;-80
2024/02/14 10:11:49;;;;;;;37.45;5.85;;;;;;;;;;4994537;28;20053;-79
2024/02/14 10:14:16;;;;;;;36.30;5.32;;;;;;;;;;4993583;28;20053;-79
2024/02/14 10:16:43;;;;;;;30.42;4.20;;;;;;;;;;4994133;28;20061;-81
2024/02/14 10:19:17;;;;;;;29.65;4.80;;;;;;;;;;4993417;28;20377;-80
2024/02/14 10:21:54;;;;;;;34.42;4.13;;;;;;;;;;4993568;28;20080;-79
2024/02/14 10:24:21;;;;;;;32.28;4.30;;;;;;;;;;4993538;28;20054;-80
2024/02/14 10:26:48;;;;;;;36.30;4.50;;;;;;;;;;4993945;28;20050;-80
2024/02/14 10:29:15;;;;;;;28.75;4.13;;;;;;;;;;4993451;28;20054;-79
2024/02/14 10:31:42;;;;;;;27.30;4.55;;;;;;;;;;4993615;28;20057;-80
2024/02/14 10:34:10;;;;;;;27.52;4.20;;;;;;;;;;4976158;28;20042;-80
2024/02/14 10:36:40;;;;;;;16.23;3.65;;;;;;;;;;4994333;28;20061;-80
2024/02/14 10:39:09;;;;;;;24.88;3.85;;;;;;;;;;4994058;28;20065;-80
2024/02/14 10:41:36;;;;;;;19.67;3.65;;;;;;;;;;4993837;28;20129;-80
2024/02/14 10:44:07;;;;;;;20.77;3.05;;;;;;;;;;4994615;28;20046;-80
2024/02/14 10:46:37;;;;;;;23.60;4.10;;;;;;;;;;4993559;28;20054;-79
2024/02/14 10:49:05;;;;;;;21.48;3.33;;;;;;;;;;4993578;28;20038;-79
2024/02/14 10:51:34;;;;;;;19.23;2.45;;;;;;;;;;4994892;28;20065;-80
2024/02/14 10:54:05;;;;;;;17.75;3.30;;;;;;;;;;4994522;28;20482;-80
2024/02/14 10:56:33;;;;;;;14.43;2.90;;;;;;;;;;4994562;28;20054;-80
2024/02/14 10:59:01;;;;;;;16.15;2.35;;;;;;;;;;4994177;28;20038;-80
2024/02/14 11:01:32;;;;;;;22.38;2.60;;;;;;;;;;4994110;28;20381;-80
2024/02/14 11:04:00;;;;;;;16.88;2.85;;;;;;;;;;4994396;28;20046;-80
2024/02/14 11:06:30;;;;;;;24.33;3.45;;;;;;;;;;4994171;28;20386;-79
2024/02/14 11:09:01;;;;;;;30.60;3.70;;;;;;;;;;4993496;28;20065;-79
2024/02/14 11:11:32;;;;;;;24.05;3.17;;;;;;;;;;4992651;28;20038;-80
2024/02/14 11:13:59;;;;;;;21.20;3.33;;;;;;;;;;4992967;28;20454;-81
2024/02/14 11:16:29;;;;;;;23.20;3.22;;;;;;;;;;4992660;28;20406;-80
2024/02/14 11:19:30;;;;;;;24.77;3.53;;;;;;;;;;4992886;28;20088;-80
2024/02/14 11:21:57;;;;;;;28.25;3.88;;;;;;;;;;4992916;28;20134;-81
2024/02/14 11:24:29;;;;;;;19.70;3.28;;;;;;;;;;4990858;28;20453;-79
2024/02/14 11:26:56;;;;;;;29.23;3.75;;;;;;;;;;4993097;28;20070;-80
2024/02/14 11:29:29;;;;;;;25.00;3.92;;;;;;;;;;4992030;28;20093;-80
2024/02/14 11:32:00;;;;;;;34.45;5.72;;;;;;;;;;4993571;28;20039;-81
2024/02/14 11:34:33;;;;;;;26.48;6.85;;;;;;;;;;4992560;28;20499;-80
2024/02/14 11:37:05;;;;;;;31.88;5.75;;;;;;;;;;4991037;28;20054;-79
2024/02/14 11:39:35;;;;;;;24.65;3.90;;;;;;;;;;4990731;28;20039;-81
2024/02/14 11:42:02;;;;;;;53.40;21.25;;;;;;;;;;4991750;28;20549;-80
2024/02/14 11:44:29;;;;;;;26.95;6.07;;;;;;;;;;4992109;28;20049;-81
2024/02/14 11:46:56;;;;;;;21.50;3.95;;;;;;;;;;4992314;28;20132;-80
2024/02/14 11:49:23;;;;;;;25.05;5.90;;;;;;;;;;4974616;28;20466;-81
2024/02/14 11:51:50;;;;;;;34.40;4.25;;;;;;;;;;4991443;28;20068;-79
2024/02/14 11:54:20;;;;;;;27.75;4.18;;;;;;;;;;4991479;28;20109;-80
2024/02/14 11:56:47;;;;;;;32.85;4.45;;;;;;;;;;4985849;28;20058;-81
2024/02/14 11:59:17;;;;;;;25.92;4.00;;;;;;;;;;4990602;28;20610;-79
2024/02/14 12:01:43;;;;;;;21.10;5.13;;;;;;;;;;4991299;28;20140;-80
2024/02/14 12:04:11;;;;;;;27.13;4.47;;;;;;;;;;4990457;28;20393;-81
2024/02/14 12:06:41;;;;;;;25.77;3.78;;;;;;;;;;4986031;28;20054;-80
2024/02/14 12:09:09;;;;;;;29.70;5.05;;;;;;;;;;4989832;28;20132;-81
2024/02/14 12:11:40;;;;;;;24.33;3.87;;;;;;;;;;4991151;28;20042;-80
2024/02/14 12:14:10;;;;;;;21.92;6.63;;;;;;;;;;4990621;28;20088;-80
2024/02/14 12:16:40;;;;;;;28.20;5.65;;;;;;;;;;4991294;28;20050;-80
2024/02/14 12:19:15;;;;;;;31.08;9.48;;;;;;;;;;4990525;28;20706;-79
2024/02/14 12:21:43;;;;;;;28.00;4.32;;;;;;;;;;4990479;28;20060;-80
2024/02/14 12:24:11;;;;;;;19.85;4.00;;;;;;;;;;4990349;28;20054;-79
2024/02/14 12:26:39;;;;;;;25.52;4.20;;;;;;;;;;4990287;28;20077;-79
2024/02/14 12:29:07;;;;;;;29.58;4.72;;;;;;;;;;4991528;28;20050;-79
2024/02/14 12:31:35;;;;;;;32.25;5.13;;;;;;;;;;4991946;28;20073;-79
2024/02/14 12:34:04;;;;;;;29.88;4.28;;;;;;;;;;4992383;28;20061;-79
2024/02/14 12:36:32;;;;;;;23.95;3.97;;;;;;;;;;4991563;28;20113;-79
2024/02/14 12:39:02;;;;;;;26.05;3.20;;;;;;;;;;4991993;28;20054;-79
2024/02/14 12:41:30;;;;;;;28.75;3.92;;;;;;;;;;4991228;28;20100;-79
2024/02/14 12:43:59;;;;;;;27.23;5.17;;;;;;;;;;4992297;28;20046;-79
2024/02/14 12:46:26;;;;;;;23.05;3.67;;;;;;;;;;4994915;28;20450;-79
2024/02/14 12:48:53;;;;;;;21.85;4.13;;;;;;;;;;4995762;28;20083;-79
2024/02/14 12:51:20;;;;;;;25.10;3.40;;;;;;;;;;4994993;28;20057;-79
2024/02/14 12:53:47;;;;;;;22.13;3.60;;;;;;;;;;4995819;28;20097;-79
2024/02/14 12:56:14;;;;;;;20.70;4.25;;;;;;;;;;4995025;28;20058;-78
2024/02/14 12:58:42;;;;;;;20.30;3.53;;;;;;;;;;4995840;28;20046;-79
2024/02/14 13:01:10;;;;;;;26.45;3.60;;;;;;;;;;4994967;28;20047;-79
2024/02/14 13:03:37;;;;;;;;;;;;;;;;;;4996048;28;20049;-79
2024/02/14 13:06:05;;;;;;;20.75;3.50;;;;;;;;;;4994804;28;20265;-79
2024/02/14 13:08:32;;;;;;;26.00;3.40;;;;;;;;;;4995584;28;20054;-79
2024/02/14 13:10:59;;;;;;;17.88;3.42;;;;;;;;;;4995288;28;20050;-80
2024/02/14 13:13:26;;;;;;;19.83;2.80;;;;;;;;;;4994581;28;20050;-80
2024/02/14 13:15:52;;;;;;;12.07;2.45;;;;;;;;;;4995192;28;20049;-78
2024/02/14 13:18:19;;;;;;;16.42;2.67;;;;;;;;;;4994868;28;20126;-80
2024/02/14 13:20:47;;;;;;;11.15;2.53;;;;;;;;;;4994814;28;20054;-78
2024/02/14 13:23:14;;;;;;;7.55;2.13;;;;;;;;;;4994973;28;20077;-78
2024/02/14 13:25:41;;;;;;;13.18;2.05;;;;;;;;;;4994756;28;20030;-77
2024/02/14 13:28:09;;;;;;;5.95;1.40;;;;;;;;;;4994860;28;20045;-78
2024/02/14 13:30:35;;;;;;;11.82;2.80;;;;;;;;;;4994833;28;20054;-79
2024/02/14 13:33:04;;;;;;;10.13;2.17;;;;;;;;;;4994637;28;20054;-78
2024/02/14 13:35:31;;;;;;;11.85;2.35;;;;;;;;;;4994320;28;20508;-78
2024/02/14 13:37:58;;;;;;;11.63;2.78;;;;;;;;;;4994954;28;20116;-79
2024/02/14 13:40:25;;;;;;;10.43;1.98;;;;;;;;;;4993953;28;20125;-78
2024/02/14 13:42:52;;;;;;;13.50;2.60;;;;;;;;;;4994684;28;20085;-78
2024/02/14 13:45:19;;;;;;;16.55;3.22;;;;;;;;;;4993999;28;20050;-78
2024/02/14 13:47:46;;;;;;;11.63;2.90;;;;;;;;;;4993425;28;20503;-79
2024/02/14 13:50:13;;;;;;;14.48;3.50;;;;;;;;;;4993815;28;20042;-78
2024/02/14 13:52:40;;;;;;;20.23;3.72;;;;;;;;;;4994418;28;20129;-79
2024/02/14 13:55:07;;;;;;;17.00;3.97;;;;;;;;;;4990529;28;20053;-78
2024/02/14 13:57:40;;;;;;;18.30;4.05;;;;;;;;;;4992742;28;20109;-79
2024/02/14 14:00:11;;;;;;;15.45;3.60;;;;;;;;;;4993503;28;20054;-78
2024/02/14 14:02:41;;;;;;;16.40;3.90;;;;;;;;;;4994400;28;20054;-80
2024/02/14 14:05:10;;;;;;;18.50;4.13;;;;;;;;;;4994430;28;20068;-79
2024/02/14 14:07:38;;;;;;;;;;;;;;;;;;4995998;28;20500;-79
2024/02/14 14:10:25;;;;;;;12.50;4.30;;;;;;;;;;4993766;28;20265;-78
2024/02/14 14:12:52;;;;;;;13.25;2.83;;;;;;;;;;4996425;28;20042;-79
2024/02/14 14:15:19;;;;;;;16.52;3.35;;;;;;;;;;4995076;28;20536;-78
2024/02/14 14:17:46;;;;;;;16.90;3.63;;;;;;;;;;4996777;28;20073;-78
2024/02/14 14:20:13;;;;;;;22.00;3.42;;;;;;;;;;4993295;28;20497;-78
2024/02/14 14:22:40;;;;;;;17.52;3.63;;;;;;;;;;4994134;28;20045;-79
2024/02/14 14:25:08;;;;;;;26.23;6.10;;;;;;;;;;4994450;28;20062;-79
2024/02/14 14:27:35;;;;;;;20.87;7.67;;;;;;;;;;4995381;28;20059;-77
2024/02/14 14:30:03;;;;;;;30.25;12.80;;;;;;;;;;4994432;28;20360;-79
2024/02/14 14:32:29;;;;;;;27.03;13.73;;;;;;;;;;4992835;28;20046;-77
2024/02/14 14:34:56;;;;;;;30.00;12.85;;;;;;;;;;4993569;28;20042;-78